sensor_id;sensor_type;location;lat;lon;timestamp;pressure;altitude;pressure_sealevel;temperature;humidity
18504;BME280;9381;54.244;10.074;2023-02-11T00:03:28;102107.22;;;6.47;100.00
18504;BME280;9381;54.244;10.074;2023-02-11T00:08:28;102112.00;;;6.53;100.00
18504;BME280;9381;54.244;10.074;2023-02-11T00:13:28;102095.06;;;6.60;100.00
18504;BME280;9381;54.244;10.074;2023-02-11T00:18:29;102082.09;;;6.56;100.00
18504;BME280;9381;54.244;10.074;2023-02-11T00:23:29;102077.19;;;6.51;100.00
18504;BME280;9381;54.244;10.074;2023-02-11T00:28:30;102080.31;;;6.64;100.00
18504;BME280;9381;54.244;10.074;2023-02-11T00:33:30;102071.88;;;6.59;100.00
18504;BME280;9381;54.244;10.074;2023-02-11T00:38:30;102048.47;;;6.77;100.00
18504;BME280;9381;54.244;10.074;2023-02-11T00:43:31;102017.19;;;6.76;100.00
18504;BME280;9381;54.244;10.074;2023-02-11T00:48:31;102035.00;;;6.77;100.00
18504;BME280;9381;54.244;10.074;2023-02-11T00:53:33;102036.91;;;6.85;100.00
18504;BME280;9381;54.244;10.074;2023-02-11T00:58:34;102035.72;;;6.87;100.00
18504;BME280;9381;54.244;10.074;2023-02-11T01:03:35;102033.75;;;6.89;100.00
18504;BME280;9381;54.244;10.074;2023-02-11T01:08:36;102030.41;;;7.03;100.00
18504;BME280;9381;54.244;10.074;2023-02-11T01:13:36;102027.06;;;7.01;100.00
18504;BME280;9381;54.244;10.074;2023-02-11T01:18:37;102023.38;;;7.02;100.00
18504;BME280;9381;54.244;10.074;2023-02-11T01:23:38;102034.13;;;7.02;100.00
18504;BME280;9381;54.244;10.074;2023-02-11T01:28:38;102037.38;;;7.14;100.00
18504;BME280;9381;54.244;10.074;2023-02-11T01:33:39;102036.50;;;7.13;100.00
18504;BME280;9381;54.244;10.074;2023-02-11T01:38:39;102063.44;;;7.21;100.00
18504;BME280;9381;54.244;10.074;2023-02-11T01:43:43;102057.06;;;7.22;100.00
18504;BME280;9381;54.244;10.074;2023-02-11T01:48:47;102043.75;;;7.21;100.00
18504;BME280;9381;54.244;10.074;2023-02-11T01:53:49;102049.84;;;7.23;100.00
18504;BME280;9381;54.244;10.074;2023-02-11T01:59:23;102052.38;;;7.32;100.00
18504;BME280;9381;54.244;10.074;2023-02-11T02:04:27;102033.22;;;7.27;100.00
18504;BME280;9381;54.244;10.074;2023-02-11T02:09:36;102034.56;;;7.39;100.00
18504;BME280;9381;54.244;10.074;2023-02-11T02:14:39;102028.53;;;7.37;100.00
18504;BME280;9381;54.244;10.074;2023-02-11T02:20:10;102021.44;;;7.28;100.00
18504;BME280;9381;54.244;10.074;2023-02-11T02:25:37;102020.47;;;7.45;100.00
18504;BME280;9381;54.244;10.074;2023-02-11T02:31:05;102005.63;;;7.33;100.00
18504;BME280;9381;54.244;10.074;2023-02-11T02:36:30;101998.22;;;7.43;100.00
18504;BME280;9381;54.244;10.074;2023-02-11T02:41:35;102002.78;;;7.35;100.00
18504;BME280;9381;54.244;10.074;2023-02-11T02:46:36;102001.28;;;7.48;100.00
18504;BME280;9381;54.244;10.074;2023-02-11T02:52:03;101984.97;;;7.50;100.00
18504;BME280;9381;54.244;10.074;2023-02-11T03:02:49;101973.53;;;7.56;100.00
18504;BME280;9381;54.244;10.074;2023-02-11T03:13:14;101958.88;;;7.50;100.00
18504;BME280;9381;54.244;10.074;2023-02-11T03:18:21;101958.53;;;7.69;100.00
18504;BME280;9381;54.244;10.074;2023-02-11T03:23:31;101953.84;;;7.63;100.00
18504;BME280;9381;54.244;10.074;2023-02-11T03:28:44;101955.19;;;7.67;100.00
18504;BME280;9381;54.244;10.074;2023-02-11T03:38:52;101945.59;;;7.73;100.00
18504;BME280;9381;54.244;10.074;2023-02-11T03:43:56;101960.56;;;7.75;100.00
18504;BME280;9381;54.244;10.074;2023-02-11T03:49:03;101964.78;;;7.70;100.00
18504;BME280;9381;54.244;10.074;2023-02-11T03:54:09;101975.38;;;7.71;100.00
18504;BME280;9381;54.244;10.074;2023-02-11T03:59:13;101977.56;;;7.76;100.00
18504;BME280;9381;54.244;10.074;2023-02-11T04:04:13;101981.97;;;7.77;100.00
18504;BME280;9381;54.244;10.074;2023-02-11T04:09:14;101954.69;;;7.80;100.00
18504;BME280;9381;54.244;10.074;2023-02-11T04:14:14;101950.81;;;7.82;100.00
18504;BME280;9381;54.244;10.074;2023-02-11T04:19:14;101942.41;;;7.77;100.00
18504;BME280;9381;54.244;10.074;2023-02-11T04:24:14;101923.88;;;7.82;100.00
18504;BME280;9381;54.244;10.074;2023-02-11T04:29:15;101920.16;;;7.91;100.00
18504;BME280;9381;54.244;10.074;2023-02-11T04:34:15;101943.06;;;7.87;100.00
18504;BME280;9381;54.244;10.074;2023-02-11T04:39:15;101946.75;;;7.94;100.00
18504;BME280;9381;54.244;10.074;2023-02-11T04:44:16;101955.84;;;7.93;100.00
18504;BME280;9381;54.244;10.074;2023-02-11T04:49:16;101944.06;;;8.02;100.00
18504;BME280;9381;54.244;10.074;2023-02-11T04:54:17;101930.25;;;7.97;100.00
18504;BME280;9381;54.244;10.074;2023-02-11T04:59:17;101925.22;;;7.94;100.00
18504;BME280;9381;54.244;10.074;2023-02-11T05:04:17;101930.75;;;7.85;100.00
18504;BME280;9381;54.244;10.074;2023-02-11T05:09:18;101898.25;;;7.94;100.00
18504;BME280;9381;54.244;10.074;2023-02-11T05:14:18;101901.13;;;7.85;100.00
18504;BME280;9381;54.244;10.074;2023-02-11T05:19:18;101892.53;;;7.89;100.00
18504;BME280;9381;54.244;10.074;2023-02-11T05:24:19;101906.69;;;7.91;100.00
18504;BME280;9381;54.244;10.074;2023-02-11T05:29:19;101908.53;;;7.99;100.00
18504;BME280;9381;54.244;10.074;2023-02-11T05:34:19;101912.41;;;7.96;100.00
18504;BME280;9381;54.244;10.074;2023-02-11T05:39:20;101927.25;;;7.92;100.00
18504;BME280;9381;54.244;10.074;2023-02-11T05:44:20;101938.47;;;8.12;100.00
18504;BME280;9381;54.244;10.074;2023-02-11T05:49:20;101944.41;;;7.99;100.00
18504;BME280;9381;54.244;10.074;2023-02-11T05:54:21;101954.69;;;7.96;100.00
18504;BME280;9381;54.244;10.074;2023-02-11T05:59:21;101974.34;;;8.04;100.00
18504;BME280;9381;54.244;10.074;2023-02-11T06:04:21;101946.75;;;8.10;100.00
18504;BME280;9381;54.244;10.074;2023-02-11T06:09:21;101944.41;;;7.99;100.00
18504;BME280;9381;54.244;10.074;2023-02-11T06:14:22;101940.69;;;8.00;100.00
18504;BME280;9381;54.244;10.074;2023-02-11T06:19:22;101959.72;;;8.07;100.00
18504;BME280;9381;54.244;10.074;2023-02-11T06:24:23;101950.28;;;8.19;100.00
18504;BME280;9381;54.244;10.074;2023-02-11T06:29:23;101954.63;;;8.12;100.00
18504;BME280;9381;54.244;10.074;2023-02-11T06:34:23;101949.09;;;8.13;100.00
18504;BME280;9381;54.244;10.074;2023-02-11T06:39:24;101951.25;;;8.18;100.00
18504;BME280;9381;54.244;10.074;2023-02-11T06:44:24;101959.88;;;8.21;100.00
18504;BME280;9381;54.244;10.074;2023-02-11T06:49:25;101969.66;;;8.22;100.00
18504;BME280;9381;54.244;10.074;2023-02-11T06:54:25;101975.03;;;8.30;100.00
18504;BME280;9381;54.244;10.074;2023-02-11T06:59:25;101975.38;;;8.27;100.00
18504;BME280;9381;54.244;10.074;2023-02-11T07:04:26;101978.53;;;8.39;100.00
18504;BME280;9381;54.244;10.074;2023-02-11T07:09:26;101985.47;;;8.33;100.00
18504;BME280;9381;54.244;10.074;2023-02-11T07:14:26;101984.81;;;8.23;100.00
18504;BME280;9381;54.244;10.074;2023-02-11T07:19:27;101996.38;;;8.40;100.00
18504;BME280;9381;54.244;10.074;2023-02-11T07:24:27;102017.28;;;8.46;100.00
18504;BME280;9381;54.244;10.074;2023-02-11T07:29:28;102032.44;;;8.47;100.00
18504;BME280;9381;54.244;10.074;2023-02-11T07:34:28;102039.06;;;8.36;100.00
18504;BME280;9381;54.244;10.074;2023-02-11T07:39:30;102059.41;;;8.47;100.00
18504;BME280;9381;54.244;10.074;2023-02-11T07:44:30;102060.09;;;8.41;100.00
18504;BME280;9381;54.244;10.074;2023-02-11T07:49:32;102048.13;;;8.35;100.00
18504;BME280;9381;54.244;10.074;2023-02-11T07:54:32;102041.03;;;8.42;100.00
18504;BME280;9381;54.244;10.074;2023-02-11T07:59:33;102049.84;;;8.36;100.00
18504;BME280;9381;54.244;10.074;2023-02-11T08:04:33;102061.41;;;8.61;100.00
18504;BME280;9381;54.244;10.074;2023-02-11T08:09:33;102067.50;;;8.47;100.00
18504;BME280;9381;54.244;10.074;2023-02-11T08:14:34;102067.31;;;8.56;100.00
18504;BME280;9381;54.244;10.074;2023-02-11T08:19:34;102066.81;;;8.53;100.00
18504;BME280;9381;54.244;10.074;2023-02-11T08:24:34;102080.66;;;8.42;100.00
18504;BME280;9381;54.244;10.074;2023-02-11T08:29:35;102075.75;;;8.53;100.00
18504;BME280;9381;54.244;10.074;2023-02-11T08:34:35;102096.97;;;8.64;100.00
18504;BME280;9381;54.244;10.074;2023-02-11T08:39:36;102104.72;;;8.59;100.00
18504;BME280;9381;54.244;10.074;2023-02-11T08:44:37;102096.81;;;8.57;100.00
18504;BME280;9381;54.244;10.074;2023-02-11T08:49:37;102105.75;;;8.66;100.00
18504;BME280;9381;54.244;10.074;2023-02-11T08:54:38;102098.81;;;8.71;100.00
18504;BME280;9381;54.244;10.074;2023-02-11T08:59:38;102098.66;;;8.65;100.00
18504;BME280;9381;54.244;10.074;2023-02-11T09:04:39;102089.69;;;8.72;100.00
18504;BME280;9381;54.244;10.074;2023-02-11T09:09:39;102096.78;;;8.73;100.00
18504;BME280;9381;54.244;10.074;2023-02-11T09:14:39;102114.81;;;8.81;100.00
18504;BME280;9381;54.244;10.074;2023-02-11T09:19:41;102117.19;;;8.68;100.00
18504;BME280;9381;54.244;10.074;2023-02-11T09:24:41;102114.09;;;8.95;100.00
18504;BME280;9381;54.244;10.074;2023-02-11T09:29:41;102115.13;;;8.94;100.00
18504;BME280;9381;54.244;10.074;2023-02-11T09:34:41;102123.72;;;8.89;100.00
18504;BME280;9381;54.244;10.074;2023-02-11T09:39:42;102115.41;;;9.07;100.00
18504;BME280;9381;54.244;10.074;2023-02-11T09:44:45;102126.78;;;8.94;100.00
18504;BME280;9381;54.244;10.074;2023-02-11T09:49:49;102121.81;;;9.14;100.00
18504;BME280;9381;54.244;10.074;2023-02-11T09:54:55;102133.97;;;9.18;100.00
18504;BME280;9381;54.244;10.074;2023-02-11T09:59:56;102141.34;;;9.24;100.00
18504;BME280;9381;54.244;10.074;2023-02-11T10:15:41;102148.69;;;9.46;100.00
18504;BME280;9381;54.244;10.074;2023-02-11T10:21:03;102145.53;;;9.34;100.00
18504;BME280;9381;54.244;10.074;2023-02-11T10:26:15;102144.47;;;9.43;100.00
18504;BME280;9381;54.244;10.074;2023-02-11T10:31:25;102133.28;;;9.54;100.00
18504;BME280;9381;54.244;10.074;2023-02-11T10:36:33;102136.47;;;9.58;100.00
18504;BME280;9381;54.244;10.074;2023-02-11T10:41:36;102140.22;;;9.57;100.00
18504;BME280;9381;54.244;10.074;2023-02-11T10:46:38;102150.38;;;9.47;100.00
18504;BME280;9381;54.244;10.074;2023-02-11T10:51:39;102163.63;;;9.64;100.00
18504;BME280;9381;54.244;10.074;2023-02-11T10:56:50;102162.44;;;9.67;100.00
18504;BME280;9381;54.244;10.074;2023-02-11T11:02:06;102160.44;;;9.61;100.00
18504;BME280;9381;54.244;10.074;2023-02-11T11:07:21;102160.75;;;9.66;100.00
18504;BME280;9381;54.244;10.074;2023-02-11T11:12:35;102165.19;;;9.59;100.00
18504;BME280;9381;54.244;10.074;2023-02-11T11:17:36;102172.34;;;9.74;100.00
18504;BME280;9381;54.244;10.074;2023-02-11T11:22:37;102174.88;;;9.76;100.00
18504;BME280;9381;54.244;10.074;2023-02-11T11:27:38;102179.28;;;9.77;100.00
18504;BME280;9381;54.244;10.074;2023-02-11T11:32:40;102179.84;;;9.95;100.00
18504;BME280;9381;54.244;10.074;2023-02-11T11:37:41;102166.22;;;9.88;100.00
18504;BME280;9381;54.244;10.074;2023-02-11T11:42:42;102171.72;;;10.03;100.00
18504;BME280;9381;54.244;10.074;2023-02-11T11:48:20;102197.38;;;10.07;100.00
18504;BME280;9381;54.244;10.074;2023-02-11T11:53:34;102185.91;;;9.97;100.00
18504;BME280;9381;54.244;10.074;2023-02-11T11:58:37;102184.28;;;9.88;100.00
18504;BME280;9381;54.244;10.074;2023-02-11T12:14:45;102174.06;;;10.06;100.00
18504;BME280;9381;54.244;10.074;2023-02-11T12:30:46;102176.31;;;10.25;100.00
18504;BME280;9381;54.244;10.074;2023-02-11T12:36:14;102197.25;;;10.31;100.00
18504;BME280;9381;54.244;10.074;2023-02-11T12:46:52;102211.19;;;10.20;100.00
18504;BME280;9381;54.244;10.074;2023-02-11T12:57:22;102239.94;;;10.13;100.00
18504;BME280;9381;54.244;10.074;2023-02-11T13:08:19;102244.41;;;10.28;100.00
18504;BME280;9381;54.244;10.074;2023-02-11T13:13:26;102249.97;;;10.27;100.00
18504;BME280;9381;54.244;10.074;2023-02-11T13:18:35;102263.16;;;10.30;100.00
18504;BME280;9381;54.244;10.074;2023-02-11T13:23:43;102262.19;;;10.23;100.00
18504;BME280;9381;54.244;10.074;2023-02-11T13:28:59;102256.28;;;10.19;100.00
18504;BME280;9381;54.244;10.074;2023-02-11T13:34:52;102258.38;;;10.01;100.00
18504;BME280;9381;54.244;10.074;2023-02-11T13:40:05;102253.78;;;10.18;100.00
18504;BME280;9381;54.244;10.074;2023-02-11T13:45:28;102267.13;;;10.11;100.00
18504;BME280;9381;54.244;10.074;2023-02-11T13:50:33;102277.38;;;10.24;100.00
18504;BME280;9381;54.244;10.074;2023-02-11T13:55:36;102273.78;;;10.09;100.00
18504;BME280;9381;54.244;10.074;2023-02-11T14:05:37;102276.78;;;10.14;100.00
18504;BME280;9381;54.244;10.074;2023-02-11T14:11:05;102285.72;;;10.14;100.00
18504;BME280;9381;54.244;10.074;2023-02-11T14:16:16;102292.00;;;10.07;100.00
18504;BME280;9381;54.244;10.074;2023-02-11T14:37:26;102309.53;;;10.19;100.00
18504;BME280;9381;54.244;10.074;2023-02-11T14:42:30;102321.06;;;10.05;100.00
18504;BME280;9381;54.244;10.074;2023-02-11T14:47:50;102325.59;;;10.12;100.00
18504;BME280;9381;54.244;10.074;2023-02-11T14:52:53;102324.78;;;10.12;100.00
18504;BME280;9381;54.244;10.074;2023-02-11T14:58:25;102325.44;;;10.14;100.00
18504;BME280;9381;54.244;10.074;2023-02-11T15:08:36;102350.41;;;10.24;100.00
18504;BME280;9381;54.244;10.074;2023-02-11T15:13:37;102353.94;;;10.32;100.00
18504;BME280;9381;54.244;10.074;2023-02-11T15:18:40;102362.22;;;10.31;100.00
18504;BME280;9381;54.244;10.074;2023-02-11T15:23:54;102372.41;;;10.21;100.00
18504;BME280;9381;54.244;10.074;2023-02-11T15:28:54;102373.06;;;10.23;100.00
18504;BME280;9381;54.244;10.074;2023-02-11T15:33:55;102382.13;;;10.38;100.00
18504;BME280;9381;54.244;10.074;2023-02-11T15:39:26;102388.94;;;10.26;100.00
18504;BME280;9381;54.244;10.074;2023-02-11T15:44:30;102381.81;;;10.33;100.00
18504;BME280;9381;54.244;10.074;2023-02-11T15:49:32;102383.50;;;10.26;100.00
18504;BME280;9381;54.244;10.074;2023-02-11T15:54:32;102389.31;;;9.99;100.00
18504;BME280;9381;54.244;10.074;2023-02-11T15:59:46;102409.59;;;10.11;100.00
18504;BME280;9381;54.244;10.074;2023-02-11T16:04:55;102414.00;;;10.04;100.00
18504;BME280;9381;54.244;10.074;2023-02-11T16:09:57;102423.97;;;9.95;100.00
18504;BME280;9381;54.244;10.074;2023-02-11T16:14:57;102426.34;;;9.98;100.00
18504;BME280;9381;54.244;10.074;2023-02-11T16:19:59;102437.31;;;9.97;100.00
18504;BME280;9381;54.244;10.074;2023-02-11T16:24:59;102428.88;;;9.84;100.00
18504;BME280;9381;54.244;10.074;2023-02-11T16:30:00;102436.66;;;9.63;100.00
18504;BME280;9381;54.244;10.074;2023-02-11T16:35:06;102450.34;;;9.69;100.00
18504;BME280;9381;54.244;10.074;2023-02-11T16:40:11;102460.66;;;9.74;100.00
18504;BME280;9381;54.244;10.074;2023-02-11T16:45:11;102475.84;;;9.67;100.00
18504;BME280;9381;54.244;10.074;2023-02-11T16:50:23;102462.50;;;9.65;100.00
18504;BME280;9381;54.244;10.074;2023-02-11T16:55:24;102466.22;;;9.64;100.00
18504;BME280;9381;54.244;10.074;2023-02-11T17:00:24;102485.78;;;9.66;100.00
18504;BME280;9381;54.244;10.074;2023-02-11T17:05:25;102491.72;;;9.54;100.00
18504;BME280;9381;54.244;10.074;2023-02-11T17:10:25;102503.22;;;9.64;100.00
18504;BME280;9381;54.244;10.074;2023-02-11T17:15:26;102513.50;;;9.60;100.00
18504;BME280;9381;54.244;10.074;2023-02-11T17:20:26;102516.88;;;9.62;100.00
18504;BME280;9381;54.244;10.074;2023-02-11T17:25:27;102536.28;;;9.58;100.00
18504;BME280;9381;54.244;10.074;2023-02-11T17:30:27;102534.56;;;9.41;100.00
18504;BME280;9381;54.244;10.074;2023-02-11T17:35:27;102529.53;;;9.46;100.00
18504;BME280;9381;54.244;10.074;2023-02-11T17:40:28;102544.03;;;9.53;100.00
18504;BME280;9381;54.244;10.074;2023-02-11T17:45:28;102563.63;;;9.47;100.00
18504;BME280;9381;54.244;10.074;2023-02-11T17:50:28;102574.06;;;9.42;100.00
18504;BME280;9381;54.244;10.074;2023-02-11T17:55:32;102585.03;;;9.48;100.00
18504;BME280;9381;54.244;10.074;2023-02-11T18:00:33;102590.97;;;9.52;100.00
18504;BME280;9381;54.244;10.074;2023-02-11T18:05:34;102594.69;;;9.51;100.00
18504;BME280;9381;54.244;10.074;2023-02-11T18:10:35;102599.78;;;9.54;100.00
18504;BME280;9381;54.244;10.074;2023-02-11T18:15:35;102605.19;;;9.54;100.00
18504;BME280;9381;54.244;10.074;2023-02-11T18:20:36;102627.03;;;9.35;100.00
18504;BME280;9381;54.244;10.074;2023-02-11T18:25:40;102657.19;;;9.56;100.00
18504;BME280;9381;54.244;10.074;2023-02-11T18:30:41;102658.69;;;9.50;100.00
18504;BME280;9381;54.244;10.074;2023-02-11T18:35:41;102649.06;;;9.48;100.00
18504;BME280;9381;54.244;10.074;2023-02-11T18:40:42;102631.41;;;9.28;100.00
18504;BME280;9381;54.244;10.074;2023-02-11T18:45:43;102631.53;;;9.18;100.00
18504;BME280;9381;54.244;10.074;2023-02-11T18:50:44;102627.09;;;9.09;100.00
18504;BME280;9381;54.244;10.074;2023-02-11T18:55:45;102615.13;;;9.12;100.00
18504;BME280;9381;54.244;10.074;2023-02-11T19:00:47;102617.59;;;8.97;100.00
18504;BME280;9381;54.244;10.074;2023-02-11T19:05:48;102627.88;;;8.94;100.00
18504;BME280;9381;54.244;10.074;2023-02-11T19:10:49;102634.22;;;8.85;100.00
18504;BME280;9381;54.244;10.074;2023-02-11T19:15:49;102640.34;;;8.95;100.00
18504;BME280;9381;54.244;10.074;2023-02-11T19:20:49;102644.34;;;8.83;100.00
18504;BME280;9381;54.244;10.074;2023-02-11T19:25:49;102643.41;;;8.74;100.00
18504;BME280;9381;54.244;10.074;2023-02-11T19:30:50;102661.78;;;8.71;100.00
18504;BME280;9381;54.244;10.074;2023-02-11T19:35:50;102658.44;;;8.77;100.00
18504;BME280;9381;54.244;10.074;2023-02-11T19:40:54;102667.44;;;8.60;100.00
18504;BME280;9381;54.244;10.074;2023-02-11T19:45:55;102677.41;;;8.42;100.00
18504;BME280;9381;54.244;10.074;2023-02-11T19:50:56;102671.13;;;8.59;100.00
18504;BME280;9381;54.244;10.074;2023-02-11T19:55:59;102686.00;;;8.63;100.00
18504;BME280;9381;54.244;10.074;2023-02-11T20:01:08;102691.78;;;8.68;100.00
18504;BME280;9381;54.244;10.074;2023-02-11T20:06:12;102715.72;;;8.71;100.00
18504;BME280;9381;54.244;10.074;2023-02-11T20:11:15;102722.91;;;8.63;100.00
18504;BME280;9381;54.244;10.074;2023-02-11T20:16:18;102729.69;;;8.84;100.00
18504;BME280;9381;54.244;10.074;2023-02-11T20:21:22;102726.38;;;8.90;100.00
18504;BME280;9381;54.244;10.074;2023-02-11T20:26:30;102727.03;;;8.92;100.00
18504;BME280;9381;54.244;10.074;2023-02-11T20:31:31;102711.84;;;8.91;100.00
18504;BME280;9381;54.244;10.074;2023-02-11T20:36:33;102719.97;;;8.91;100.00
18504;BME280;9381;54.244;10.074;2023-02-11T20:41:36;102736.09;;;8.83;100.00
18504;BME280;9381;54.244;10.074;2023-02-11T20:46:41;102736.56;;;8.78;100.00
18504;BME280;9381;54.244;10.074;2023-02-11T20:51:42;102734.38;;;8.82;100.00
18504;BME280;9381;54.244;10.074;2023-02-11T20:56:43;102745.38;;;8.63;100.00
18504;BME280;9381;54.244;10.074;2023-02-11T21:01:49;102757.91;;;8.72;100.00
18504;BME280;9381;54.244;10.074;2023-02-11T21:06:55;102762.66;;;8.78;100.00
18504;BME280;9381;54.244;10.074;2023-02-11T21:11:56;102768.78;;;8.63;100.00
18504;BME280;9381;54.244;10.074;2023-02-11T21:16:57;102770.41;;;8.73;100.00
18504;BME280;9381;54.244;10.074;2023-02-11T21:21:57;102779.19;;;8.75;100.00
18504;BME280;9381;54.244;10.074;2023-02-11T21:26:59;102780.72;;;8.77;100.00
18504;BME280;9381;54.244;10.074;2023-02-11T21:32:00;102787.66;;;8.80;100.00
18504;BME280;9381;54.244;10.074;2023-02-11T21:37:00;102787.56;;;8.89;100.00
18504;BME280;9381;54.244;10.074;2023-02-11T21:42:00;102777.00;;;8.96;100.00
18504;BME280;9381;54.244;10.074;2023-02-11T21:47:01;102796.34;;;8.91;100.00
18504;BME280;9381;54.244;10.074;2023-02-11T21:52:01;102805.84;;;8.78;100.00
18504;BME280;9381;54.244;10.074;2023-02-11T21:57:01;102819.91;;;8.64;100.00
18504;BME280;9381;54.244;10.074;2023-02-11T22:02:02;102817.72;;;8.85;100.00
18504;BME280;9381;54.244;10.074;2023-02-11T22:07:02;102821.19;;;8.60;100.00
18504;BME280;9381;54.244;10.074;2023-02-11T22:12:03;102824.56;;;8.62;100.00
18504;BME280;9381;54.244;10.074;2023-02-11T22:17:04;102825.66;;;8.69;100.00
18504;BME280;9381;54.244;10.074;2023-02-11T22:22:04;102826.97;;;8.65;100.00
18504;BME280;9381;54.244;10.074;2023-02-11T22:27:07;102825.03;;;8.57;100.00
18504;BME280;9381;54.244;10.074;2023-02-11T22:32:07;102838.22;;;8.61;100.00
18504;BME280;9381;54.244;10.074;2023-02-11T22:37:07;102831.88;;;8.52;100.00
18504;BME280;9381;54.244;10.074;2023-02-11T22:42:08;102842.22;;;8.39;100.00
18504;BME280;9381;54.244;10.074;2023-02-11T22:47:08;102847.28;;;8.42;100.00
18504;BME280;9381;54.244;10.074;2023-02-11T22:52:09;102848.38;;;8.32;100.00
18504;BME280;9381;54.244;10.074;2023-02-11T22:57:09;102846.41;;;8.24;100.00
18504;BME280;9381;54.244;10.074;2023-02-11T23:02:09;102848.81;;;8.27;100.00
18504;BME280;9381;54.244;10.074;2023-02-11T23:07:09;102856.34;;;8.24;100.00
18504;BME280;9381;54.244;10.074;2023-02-11T23:12:10;102877.25;;;8.39;100.00
18504;BME280;9381;54.244;10.074;2023-02-11T23:17:10;102866.06;;;8.34;100.00
18504;BME280;9381;54.244;10.074;2023-02-11T23:22:10;102863.69;;;8.31;100.00
18504;BME280;9381;54.244;10.074;2023-02-11T23:27:10;102873.16;;;8.35;100.00
18504;BME280;9381;54.244;10.074;2023-02-11T23:32:11;102880.28;;;8.36;100.00
18504;BME280;9381;54.244;10.074;2023-02-11T23:37:11;102890.22;;;8.53;100.00
18504;BME280;9381;54.244;10.074;2023-02-11T23:42:11;102901.22;;;8.42;100.00
18504;BME280;9381;54.244;10.074;2023-02-11T23:47:12;102905.47;;;8.45;100.00
18504;BME280;9381;54.244;10.074;2023-02-11T23:52:12;102912.81;;;8.52;100.00
18504;BME280;9381;54.244;10.074;2023-02-11T23:57:12;102913.91;;;8.59;100.00
